Time;durP1;ratioP1;P1;durP2;ratioP2;P2;SDS_P1;SDS_P2;PMS_P1;PMS_P2;Temp;Humidity;BMP_temperature;BMP_pressure;BME280_temperature;BME280_humidity;BME280_pressure;Samples;Min_cycle;Max_cycle;Signal;HPM_P1;HPM_P2
2021/08/07 00:01:14;;;;;;;5.65;2.95;;;14.80;99.90;;;;;;4970902;28;20050;-74
2021/08/07 00:03:41;;;;;;;4.72;2.72;;;14.80;99.90;;;;;;5005897;28;20129;-75
2021/08/07 00:06:23;;;;;;;5.70;3.10;;;14.80;99.90;;;;;;4988517;28;20057;-74
2021/08/07 00:08:51;;;;;;;7.22;3.30;;;14.70;99.90;;;;;;5003193;28;20062;-74
2021/08/07 00:11:18;;;;;;;7.30;3.53;;;14.60;99.90;;;;;;4983514;28;20490;-72
2021/08/07 00:13:45;;;;;;;8.63;3.55;;;14.60;99.90;;;;;;4997763;28;20054;-73
2021/08/07 00:16:12;;;;;;;10.27;3.85;;;14.50;99.90;;;;;;4986907;28;20113;-75
2021/08/07 00:18:40;;;;;;;4.50;3.53;;;14.50;99.90;;;;;;4984794;28;20089;-73
2021/08/07 00:21:06;;;;;;;9.43;3.50;;;14.50;99.90;;;;;;4968238;28;20054;-73
2021/08/07 00:23:33;;;;;;;5.32;3.65;;;14.50;99.90;;;;;;4992022;28;20042;-75
2021/08/07 00:26:00;;;;;;;6.90;3.60;;;14.40;99.90;;;;;;4985208;28;20045;-74
2021/08/07 00:28:27;;;;;;;4.32;3.63;;;14.30;99.90;;;;;;4970995;28;20050;-74
2021/08/07 00:30:54;;;;;;;6.28;3.88;;;14.30;99.90;;;;;;4967894;28;20081;-73
2021/08/07 00:33:20;;;;;;;5.25;3.15;;;14.30;99.90;;;;;;4984935;28;20042;-75
2021/08/07 00:35:48;;;;;;;6.38;3.90;;;14.20;99.90;;;;;;4951342;28;20053;-74
2021/08/07 00:38:15;;;;;;;7.78;3.65;;;14.30;99.90;;;;;;4984812;28;20481;-74
2021/08/07 00:40:43;;;;;;;4.97;3.50;;;14.30;99.90;;;;;;4987092;28;20422;-73
2021/08/07 00:43:11;;;;;;;5.68;3.50;;;14.20;99.90;;;;;;4967937;28;20050;-73
2021/08/07 00:45:39;;;;;;;6.70;3.78;;;14.10;99.90;;;;;;4998855;28;20465;-73
2021/08/07 00:48:09;;;;;;;8.25;3.25;;;14.20;99.90;;;;;;5003294;28;20064;-73
2021/08/07 00:50:46;;;;;;;5.22;3.17;;;14.10;99.90;;;;;;5004880;28;20053;-74
2021/08/07 00:53:19;;;;;;;5.75;3.17;;;14.10;99.90;;;;;;4992823;28;20061;-74
2021/08/07 00:55:48;;;;;;;4.97;3.17;;;14.10;99.90;;;;;;5000371;28;20263;-74
2021/08/07 00:58:15;;;;;;;8.20;4.10;;;14.10;99.90;;;;;;5003653;28;20462;-75
2021/08/07 01:00:44;;;;;;;3.63;3.13;;;14.10;99.90;;;;;;5003329;28;20058;-73
2021/08/07 01:03:35;;;;;;;6.63;4.10;;;14.20;99.90;;;;;;4987296;28;20148;-74
2021/08/07 01:06:17;;;;;;;5.50;3.17;;;14.20;99.90;;;;;;5001302;28;20056;-74
2021/08/07 01:09:12;;;;;;;5.78;4.05;;;14.10;99.90;;;;;;4973607;28;20124;-73
2021/08/07 01:11:48;;;;;;;6.35;3.88;;;14.00;99.90;;;;;;4984105;28;20397;-75
2021/08/07 01:14:20;;;;;;;6.82;4.30;;;13.90;99.90;;;;;;4967488;28;20054;-73
2021/08/07 01:16:50;;;;;;;6.65;4.00;;;13.90;99.90;;;;;;4977563;28;20127;-74
2021/08/07 01:19:18;;;;;;;7.03;4.03;;;13.90;99.90;;;;;;4984122;28;20062;-73
2021/08/07 01:22:01;;;;;;;4.90;3.42;;;13.90;99.90;;;;;;4951807;28;20054;-74
2021/08/07 01:24:49;;;;;;;6.57;4.55;;;13.90;99.90;;;;;;4974594;28;20121;-74
2021/08/07 01:27:28;;;;;;;8.13;4.63;;;13.90;99.90;;;;;;4951245;28;20151;-74
2021/08/07 01:30:17;;;;;;;5.38;3.88;;;13.90;99.90;;;;;;4984407;28;20358;-74
2021/08/07 01:32:45;;;;;;;4.50;3.70;;;13.90;99.90;;;;;;4983502;28;20043;-74
2021/08/07 01:35:14;;;;;;;4.30;3.75;;;13.90;99.90;;;;;;4981703;28;20043;-73
2021/08/07 01:37:46;;;;;;;7.43;4.20;;;13.80;99.90;;;;;;4982943;28;20474;-74
2021/08/07 01:40:21;;;;;;;4.80;4.30;;;13.70;99.90;;;;;;4965008;28;20166;-73
2021/08/07 01:42:56;;;;;;;7.97;4.25;;;13.70;99.90;;;;;;4985472;28;20339;-74
2021/08/07 01:45:27;;;;;;;15.70;5.70;;;13.70;99.90;;;;;;5001271;28;20502;-73
2021/08/07 01:48:30;;;;;;;5.40;4.50;;;13.80;99.90;;;;;;4971012;28;20049;-73
2021/08/07 01:51:17;;;;;;;11.88;4.38;;;13.70;99.90;;;;;;4978754;28;20061;-74
2021/08/07 01:53:53;;;;;;;9.15;4.95;;;13.70;99.90;;;;;;4979486;28;20050;-73
2021/08/07 01:56:28;;;;;;;6.22;4.80;;;13.40;99.90;;;;;;4984040;28;20053;-74
2021/08/07 01:59:12;;;;;;;6.05;5.30;;;13.50;99.90;;;;;;4986716;28;20053;-74
2021/08/07 02:01:41;;;;;;;6.20;5.20;;;13.50;99.90;;;;;;5016161;28;20145;-75
2021/08/07 02:04:15;;;;;;;6.88;4.80;;;13.60;99.90;;;;;;4986101;28;20054;-74
2021/08/07 02:06:49;;;;;;;7.70;5.35;;;13.60;99.90;;;;;;4982058;28;20058;-73
2021/08/07 02:09:19;;;;;;;10.00;5.18;;;13.60;99.90;;;;;;4982408;28;20153;-73
2021/08/07 02:11:54;;;;;;;8.07;5.07;;;13.50;99.90;;;;;;4966065;28;20059;-74
2021/08/07 02:14:25;;;;;;;7.90;4.70;;;13.40;99.90;;;;;;4972358;28;20445;-74
2021/08/07 02:16:55;;;;;;;7.57;5.57;;;13.50;99.90;;;;;;4982475;28;20055;-73
2021/08/07 02:19:25;;;;;;;9.25;4.70;;;13.50;99.90;;;;;;4983104;28;20069;-74
2021/08/07 02:21:55;;;;;;;6.45;5.57;;;13.30;99.90;;;;;;4965918;28;20096;-74
2021/08/07 02:24:28;;;;;;;8.80;5.70;;;13.20;99.90;;;;;;4992721;28;20046;-73
2021/08/07 02:26:59;;;;;;;8.98;5.32;;;13.30;99.90;;;;;;5002247;28;20089;-74
2021/08/07 02:29:29;;;;;;;8.13;5.63;;;13.30;99.90;;;;;;4985868;28;20469;-74
2021/08/07 02:32:05;;;;;;;9.13;6.10;;;13.30;99.90;;;;;;5002213;28;20498;-74
2021/08/07 02:34:34;;;;;;;11.98;5.55;;;13.10;99.90;;;;;;4972588;28;20358;-74
2021/08/07 02:37:05;;;;;;;7.05;6.10;;;13.10;99.90;;;;;;4982237;28;20054;-74
2021/08/07 02:39:35;;;;;;;11.75;6.00;;;13.10;99.90;;;;;;4950112;28;20141;-72
2021/08/07 02:42:04;;;;;;;7.00;5.97;;;13.40;99.90;;;;;;4966195;28;20069;-75
2021/08/07 02:44:39;;;;;;;8.10;5.65;;;13.40;99.90;;;;;;4982457;28;20517;-74
2021/08/07 02:47:07;;;;;;;11.75;7.10;;;13.30;99.90;;;;;;4949471;28;20101;-73
2021/08/07 02:49:35;;;;;;;10.90;6.60;;;13.30;99.90;;;;;;4965599;28;20096;-74
2021/08/07 02:52:03;;;;;;;8.98;5.70;;;13.40;99.90;;;;;;4966217;28;20053;-74
2021/08/07 02:54:31;;;;;;;7.93;5.50;;;13.50;99.90;;;;;;4980408;28;20073;-73
2021/08/07 02:56:58;;;;;;;12.07;5.78;;;13.40;99.90;;;;;;5004786;28;20482;-74
2021/08/07 02:59:28;;;;;;;6.32;5.35;;;13.40;99.90;;;;;;4997990;28;20247;-75
2021/08/07 03:01:55;;;;;;;7.50;6.32;;;13.40;99.90;;;;;;4969316;28;20141;-74
2021/08/07 03:04:23;;;;;;;9.30;5.32;;;13.40;99.90;;;;;;4985332;28;20149;-74
2021/08/07 03:06:53;;;;;;;6.80;4.40;;;13.40;99.90;;;;;;4985689;28;20261;-73
2021/08/07 03:09:20;;;;;;;8.35;5.22;;;13.40;99.90;;;;;;4985849;28;20322;-74
2021/08/07 03:11:50;;;;;;;11.90;4.85;;;13.50;99.90;;;;;;4999664;28;20085;-75
2021/08/07 03:14:20;;;;;;;6.22;4.78;;;13.50;99.90;;;;;;4970073;28;20117;-74
2021/08/07 03:16:48;;;;;;;8.18;5.32;;;13.60;99.90;;;;;;4995309;28;20054;-74
2021/08/07 03:19:18;;;;;;;7.53;5.32;;;13.50;99.90;;;;;;4989235;28;20497;-74
2021/08/07 03:21:49;;;;;;;11.93;5.60;;;13.50;99.90;;;;;;5000971;28;20065;-73
2021/08/07 03:24:17;;;;;;;7.93;5.78;;;13.60;99.90;;;;;;4978538;28;20050;-73
2021/08/07 03:26:48;;;;;;;7.65;6.22;;;13.60;99.90;;;;;;4972154;28;20050;-74
2021/08/07 03:29:18;;;;;;;10.02;5.05;;;13.60;99.90;;;;;;5005565;28;20518;-74
2021/08/07 03:31:46;;;;;;;9.35;5.55;;;13.50;99.90;;;;;;5004650;28;20129;-73
2021/08/07 03:34:14;;;;;;;5.95;5.13;;;13.40;99.90;;;;;;4977461;28;20050;-73
2021/08/07 03:36:43;;;;;;;7.85;5.03;;;13.30;99.90;;;;;;4988586;28;20092;-74
2021/08/07 03:39:11;;;;;;;10.18;5.55;;;13.30;99.90;;;;;;4981740;28;20077;-73
2021/08/07 03:41:39;;;;;;;7.90;5.85;;;13.30;99.90;;;;;;4985980;28;20046;-74
2021/08/07 03:44:09;;;;;;;8.25;6.07;;;13.10;99.90;;;;;;4969530;28;20104;-73
2021/08/07 03:46:36;;;;;;;10.07;5.85;;;13.20;99.90;;;;;;4985685;28;20259;-75
2021/08/07 03:49:04;;;;;;;9.32;6.38;;;13.10;99.90;;;;;;4972374;28;20045;-73
2021/08/07 03:51:37;;;;;;;7.88;5.53;;;13.00;99.90;;;;;;5001192;28;20046;-74
2021/08/07 03:54:04;;;;;;;7.22;5.50;;;12.90;99.90;;;;;;4976716;28;20066;-74
2021/08/07 03:56:33;;;;;;;9.05;5.68;;;12.90;99.90;;;;;;4987035;28;20046;-73
2021/08/07 03:59:04;;;;;;;10.80;6.22;;;12.90;99.90;;;;;;4967572;28;20058;-73
2021/08/07 04:01:31;;;;;;;13.52;7.15;;;12.90;99.90;;;;;;4985045;28;20056;-76
2021/08/07 04:04:02;;;;;;;14.02;6.40;;;12.90;99.90;;;;;;4984604;28;20050;-77
2021/08/07 04:06:35;;;;;;;10.38;6.78;;;12.70;99.90;;;;;;4968852;28;20054;-76
2021/08/07 04:09:04;;;;;;;10.18;5.88;;;12.80;99.90;;;;;;4995838;28;20101;-76
2021/08/07 04:11:31;;;;;;;9.10;6.18;;;12.80;99.90;;;;;;4992687;28;20543;-76
2021/08/07 04:14:05;;;;;;;8.20;6.55;;;12.80;99.90;;;;;;4975264;28;20484;-77
2021/08/07 04:16:34;;;;;;;9.35;6.50;;;12.80;99.90;;;;;;4980821;28;20050;-77
2021/08/07 04:19:09;;;;;;;10.73;6.43;;;12.70;99.90;;;;;;5006441;28;20042;-77
2021/08/07 04:21:38;;;;;;;10.73;7.40;;;12.50;99.90;;;;;;4996468;28;20042;-77
2021/08/07 04:24:06;;;;;;;8.43;5.95;;;12.40;99.90;;;;;;5000745;28;20045;-78
2021/08/07 04:26:35;;;;;;;9.43;6.35;;;12.40;99.90;;;;;;4976039;28;20050;-77
2021/08/07 04:29:02;;;;;;;7.38;5.70;;;12.40;99.90;;;;;;4983902;28;20058;-77
2021/08/07 04:31:30;;;;;;;11.68;5.68;;;12.40;99.90;;;;;;4953590;28;20228;-76
2021/08/07 04:33:58;;;;;;;9.60;6.68;;;12.50;99.90;;;;;;4983657;28;20105;-76
2021/08/07 04:36:24;;;;;;;12.95;6.75;;;12.50;99.90;;;;;;4983378;28;20043;-76
2021/08/07 04:38:51;;;;;;;8.85;6.65;;;12.50;99.90;;;;;;4968817;28;20061;-76
2021/08/07 04:41:18;;;;;;;8.98;6.40;;;12.50;99.90;;;;;;4955220;28;20054;-77
2021/08/07 04:43:46;;;;;;;8.55;6.78;;;12.70;99.90;;;;;;4984703;28;20058;-77
2021/08/07 04:46:13;;;;;;;11.48;5.68;;;12.80;99.90;;;;;;4968344;28;20050;-77
2021/08/07 04:48:40;;;;;;;9.10;6.50;;;12.80;99.90;;;;;;4984066;28;20068;-77
2021/08/07 04:51:13;;;;;;;8.27;5.65;;;12.80;99.90;;;;;;4967059;28;20050;-77
2021/08/07 04:53:42;;;;;;;8.52;5.70;;;12.90;99.90;;;;;;4976149;28;20049;-76
2021/08/07 04:56:16;;;;;;;9.07;6.85;;;12.80;99.90;;;;;;4980231;28;20042;-77
2021/08/07 04:58:43;;;;;;;7.88;5.95;;;12.90;99.90;;;;;;4985106;28;20288;-77
2021/08/07 05:01:11;;;;;;;10.35;6.60;;;12.90;99.90;;;;;;5000647;28;20076;-77
2021/08/07 05:03:39;;;;;;;8.57;6.15;;;13.00;99.90;;;;;;4970911;28;20486;-76
2021/08/07 05:06:09;;;;;;;10.52;6.28;;;13.00;99.90;;;;;;4984477;28;20308;-77
2021/08/07 05:08:37;;;;;;;9.32;6.32;;;13.10;99.90;;;;;;4982602;28;20262;-76
2021/08/07 05:11:05;;;;;;;6.60;5.35;;;13.10;99.90;;;;;;4983178;28;20502;-76
2021/08/07 05:13:33;;;;;;;8.20;6.25;;;13.10;99.90;;;;;;4966493;28;20058;-77
2021/08/07 05:16:00;;;;;;;5.65;5.00;;;13.10;99.90;;;;;;4965350;28;20536;-77
2021/08/07 05:18:28;;;;;;;5.68;5.03;;;13.20;99.90;;;;;;4982949;28;20636;-76
2021/08/07 05:20:56;;;;;;;6.20;5.28;;;13.20;99.90;;;;;;4968807;28;20053;-77
2021/08/07 05:23:23;;;;;;;7.75;5.28;;;13.30;99.90;;;;;;4986786;28;20082;-77
2021/08/07 05:25:50;;;;;;;5.20;4.68;;;13.30;99.90;;;;;;4982124;28;20577;-77
2021/08/07 05:28:18;;;;;;;9.13;4.95;;;13.30;99.90;;;;;;4982533;28;20058;-77
2021/08/07 05:30:45;;;;;;;7.07;4.85;;;13.50;99.90;;;;;;4982326;28;20050;-77
2021/08/07 05:33:12;;;;;;;7.03;3.90;;;13.70;99.90;;;;;;4950793;28;20051;-77
2021/08/07 05:35:40;;;;;;;6.07;5.00;;;13.80;99.90;;;;;;4959699;28;20030;-78
2021/08/07 05:38:09;;;;;;;5.80;4.55;;;13.90;99.90;;;;;;4958440;28;20149;-77
2021/08/07 05:40:36;;;;;;;7.13;4.05;;;14.20;99.90;;;;;;4982154;28;20050;-77
2021/08/07 05:43:03;;;;;;;8.77;3.35;;;14.10;99.90;;;;;;4982382;28;20541;-78
2021/08/07 05:45:30;;;;;;;4.55;4.05;;;14.20;99.90;;;;;;4964049;28;20459;-77
2021/08/07 05:47:57;;;;;;;6.15;3.78;;;14.30;99.90;;;;;;4966301;28;20046;-77
2021/08/07 05:50:25;;;;;;;3.25;2.95;;;14.50;99.90;;;;;;4981993;28;20507;-76
2021/08/07 05:52:53;;;;;;;3.58;2.97;;;14.60;99.90;;;;;;4978234;28;20049;-78
2021/08/07 05:55:20;;;;;;;7.25;2.97;;;14.70;99.90;;;;;;4983163;28;20542;-76
2021/08/07 05:57:47;;;;;;;3.70;3.20;;;14.80;99.90;;;;;;4985961;28;20538;-77
2021/08/07 06:00:16;;;;;;;4.30;3.05;;;14.90;99.90;;;;;;4949673;28;20046;-77
2021/08/07 06:02:43;;;;;;;6.32;2.88;;;15.00;99.90;;;;;;4982608;28;20503;-77
2021/08/07 06:05:14;;;;;;;6.15;3.08;;;15.10;99.90;;;;;;4981218;28;20056;-77
2021/08/07 06:07:43;;;;;;;5.55;2.78;;;15.10;99.90;;;;;;4965632;28;20146;-76
2021/08/07 06:10:10;;;;;;;3.08;2.78;;;15.20;99.90;;;;;;4982459;28;20078;-77
2021/08/07 06:12:38;;;;;;;4.40;3.08;;;15.20;99.90;;;;;;4981686;28;20121;-77
2021/08/07 06:15:05;;;;;;;5.57;3.08;;;15.20;99.90;;;;;;4965863;28;20066;-77
2021/08/07 06:17:33;;;;;;;4.25;3.25;;;15.30;99.90;;;;;;4982538;28;20058;-77
2021/08/07 06:20:00;;;;;;;2.45;2.25;;;15.10;99.90;;;;;;4964935;28;20887;-77
2021/08/07 06:22:28;;;;;;;6.80;2.85;;;15.10;99.90;;;;;;4985274;28;20053;-77
2021/08/07 06:24:55;;;;;;;3.72;3.00;;;15.10;99.90;;;;;;4964689;28;20151;-77
2021/08/07 06:27:22;;;;;;;7.43;3.42;;;15.00;99.90;;;;;;4981644;28;20058;-77
2021/08/07 06:29:49;;;;;;;5.63;2.83;;;15.00;99.90;;;;;;4991475;28;20049;-77
2021/08/07 06:32:15;;;;;;;4.75;2.92;;;15.00;99.90;;;;;;5004288;28;20054;-77
2021/08/07 06:34:42;;;;;;;5.85;2.63;;;15.10;99.90;;;;;;4973843;28;20089;-76
2021/08/07 06:37:10;;;;;;;6.43;2.80;;;15.20;99.90;;;;;;4986665;28;20070;-76
2021/08/07 06:39:37;;;;;;;4.15;2.80;;;15.30;99.90;;;;;;4984139;28;20136;-77
2021/08/07 06:42:05;;;;;;;3.40;2.13;;;15.30;99.90;;;;;;4975855;28;20125;-76
2021/08/07 06:44:51;;;;;;;;;;;15.30;99.90;;;;;;4983946;28;20082;-76
2021/08/07 06:47:19;;;;;;;3.90;2.60;;;15.30;99.90;;;;;;4997186;28;20396;-76
2021/08/07 06:49:46;;;;;;;4.40;2.65;;;15.30;99.90;;;;;;4984174;28;20054;-77
2021/08/07 06:52:14;;;;;;;4.20;2.70;;;15.40;99.90;;;;;;4993012;28;20047;-77
2021/08/07 06:54:42;;;;;;;4.03;2.83;;;15.50;99.90;;;;;;4989153;28;20042;-77
2021/08/07 06:57:17;;;;;;;6.25;2.67;;;15.60;99.90;;;;;;4969937;28;20522;-77
2021/08/07 06:59:45;;;;;;;;;;;15.70;99.90;;;;;;4971528;28;20558;-78
2021/08/07 07:02:12;;;;;;;2.63;2.20;;;15.70;99.90;;;;;;4985037;28;20146;-78
2021/08/07 07:04:40;;;;;;;4.63;2.63;;;15.80;99.90;;;;;;4965770;28;20046;-77
2021/08/07 07:07:07;;;;;;;4.47;2.63;;;15.90;99.90;;;;;;4982306;28;20051;-77
2021/08/07 07:09:34;;;;;;;2.40;2.20;;;16.10;99.90;;;;;;4991279;28;20478;-78
2021/08/07 07:12:04;;;;;;;6.38;3.05;;;16.20;99.90;;;;;;4984728;28;20141;-78
2021/08/07 07:14:30;;;;;;;5.45;2.90;;;16.20;99.90;;;;;;4954352;28;20402;-79
2021/08/07 07:16:57;;;;;;;3.65;2.10;;;16.20;99.90;;;;;;4990653;28;20047;-78
2021/08/07 07:19:27;;;;;;;2.97;2.03;;;16.30;99.90;;;;;;4985887;28;20055;-77
2021/08/07 07:21:54;;;;;;;6.05;2.53;;;16.40;99.90;;;;;;4983815;28;20046;-78
2021/08/07 07:24:22;;;;;;;4.68;2.50;;;16.60;99.90;;;;;;4978406;28;20046;-78
2021/08/07 07:26:49;;;;;;;3.95;2.70;;;16.80;99.90;;;;;;5004546;28;20520;-78
2021/08/07 07:29:16;;;;;;;5.88;2.45;;;17.00;99.90;;;;;;4988507;28;20050;-78
2021/08/07 07:31:43;;;;;;;4.55;2.40;;;17.00;99.90;;;;;;5003450;28;20370;-77
2021/08/07 07:34:11;;;;;;;2.97;2.67;;;17.00;99.90;;;;;;4975521;28;20522;-77
2021/08/07 07:36:38;;;;;;;4.07;2.75;;;17.10;99.90;;;;;;4989405;28;20037;-77
2021/08/07 07:39:05;;;;;;;5.63;2.97;;;17.20;99.90;;;;;;4982138;28;20129;-78
2021/08/07 07:41:32;;;;;;;3.35;2.58;;;17.20;99.90;;;;;;4983493;28;20239;-78
2021/08/07 07:43:59;;;;;;;2.67;2.47;;;17.20;99.90;;;;;;4984607;28;20061;-79
2021/08/07 07:46:26;;;;;;;3.80;3.05;;;17.20;99.90;;;;;;4984365;28;20058;-79
2021/08/07 07:48:52;;;;;;;5.50;2.50;;;17.30;99.90;;;;;;4991852;28;20061;-77
2021/08/07 07:51:19;;;;;;;4.30;2.75;;;17.40;99.90;;;;;;4987870;28;20058;-77
2021/08/07 07:53:46;;;;;;;8.50;4.40;;;17.50;99.90;;;;;;5005834;28;20106;-78
2021/08/07 07:56:13;;;;;;;4.55;3.40;;;17.60;99.90;;;;;;4967852;28;20050;-77
2021/08/07 07:58:40;;;;;;;6.35;3.38;;;17.60;99.90;;;;;;4984427;28;20070;-77
2021/08/07 08:01:07;;;;;;;12.40;3.85;;;17.70;99.90;;;;;;4967547;28;20057;-77
2021/08/07 08:03:35;;;;;;;5.00;3.60;;;17.50;99.90;;;;;;4998081;28;20027;-79
2021/08/07 08:06:02;;;;;;;3.78;3.40;;;17.40;99.90;;;;;;4973901;28;20081;-78
2021/08/07 08:08:30;;;;;;;5.00;3.80;;;17.50;99.90;;;;;;4949793;28;20035;-78
2021/08/07 08:10:57;;;;;;;4.97;2.95;;;17.50;99.90;;;;;;4998837;28;20070;-78
2021/08/07 08:13:24;;;;;;;3.33;3.03;;;17.40;99.90;;;;;;4984404;28;20709;-78
2021/08/07 08:15:52;;;;;;;9.98;4.15;;;17.50;99.90;;;;;;4984647;28;20141;-77
2021/08/07 08:18:22;;;;;;;3.78;3.38;;;17.60;99.90;;;;;;4984404;28;20055;-78
2021/08/07 08:20:48;;;;;;;5.95;3.30;;;17.60;99.90;;;;;;4983479;28;20526;-77
2021/08/07 08:23:16;;;;;;;3.15;2.95;;;17.60;99.90;;;;;;4991915;28;20073;-78
2021/08/07 08:25:43;;;;;;;3.88;2.97;;;17.60;99.90;;;;;;4996655;28;20056;-78
2021/08/07 08:28:10;;;;;;;3.72;3.38;;;17.80;99.90;;;;;;5000579;28;20060;-77
2021/08/07 08:30:39;;;;;;;4.53;3.88;;;17.90;99.90;;;;;;4986209;28;20522;-78
2021/08/07 08:33:07;;;;;;;4.40;3.58;;;17.80;99.90;;;;;;4986189;28;20076;-78
2021/08/07 08:35:34;;;;;;;4.57;3.38;;;18.10;99.90;;;;;;4967600;28;20046;-78
2021/08/07 08:38:01;;;;;;;7.10;3.70;;;18.30;99.90;;;;;;4984236;28;20061;-80
2021/08/07 08:40:29;;;;;;;4.45;3.92;;;18.60;99.90;;;;;;4984842;28;20050;-79
2021/08/07 08:42:57;;;;;;;4.47;3.92;;;18.90;99.90;;;;;;4977150;28;20078;-79
2021/08/07 08:45:25;;;;;;;4.72;4.03;;;19.10;99.90;;;;;;4985338;28;20526;-78
2021/08/07 08:47:54;;;;;;;9.32;4.25;;;18.90;99.90;;;;;;4952141;28;20046;-79
2021/08/07 08:50:22;;;;;;;11.45;4.25;;;19.00;99.90;;;;;;4967708;28;20395;-78
2021/08/07 08:52:51;;;;;;;5.60;4.85;;;19.00;99.90;;;;;;4989361;28;20607;-78
2021/08/07 08:55:18;;;;;;;5.50;4.00;;;19.00;99.90;;;;;;4996885;28;20054;-78
2021/08/07 08:57:45;;;;;;;3.70;3.33;;;19.10;99.90;;;;;;4987771;28;20049;-78
2021/08/07 09:00:14;;;;;;;5.43;5.10;;;19.40;99.90;;;;;;4996299;28;20145;-79
2021/08/07 09:02:42;;;;;;;5.40;5.00;;;19.60;99.90;;;;;;4968553;28;20046;-78
2021/08/07 09:05:14;;;;;;;5.65;5.15;;;19.80;99.90;;;;;;4985029;28;20072;-78
2021/08/07 09:07:43;;;;;;;6.85;5.22;;;19.90;99.90;;;;;;4986216;28;20108;-78
2021/08/07 09:10:13;;;;;;;6.05;5.40;;;20.00;99.90;;;;;;4983285;28;20054;-80
2021/08/07 09:12:43;;;;;;;10.70;6.07;;;20.10;99.90;;;;;;4984438;28;20061;-78
2021/08/07 09:15:31;;;;;;;6.13;5.80;;;20.10;99.90;;;;;;4965896;28;20486;-78
2021/08/07 09:18:10;;;;;;;6.15;5.82;;;20.20;99.90;;;;;;4986246;28;20100;-78
2021/08/07 09:20:43;;;;;;;6.57;5.95;;;20.50;99.90;;;;;;4963629;28;20578;-79
2021/08/07 09:23:10;;;;;;;6.55;6.10;;;20.70;99.90;;;;;;4975029;28;20376;-79
2021/08/07 09:25:39;;;;;;;7.80;7.32;;;21.20;99.90;;;;;;4955377;28;20145;-79
2021/08/07 09:28:07;;;;;;;7.80;7.10;;;21.30;99.90;;;;;;4983205;28;20070;-78
2021/08/07 09:30:36;;;;;;;7.95;7.35;;;21.40;99.90;;;;;;4966475;28;20486;-78
2021/08/07 09:33:12;;;;;;;7.30;6.90;;;21.40;99.90;;;;;;4967044;28;20220;-78
2021/08/07 09:35:46;;;;;;;9.10;6.90;;;21.30;99.90;;;;;;4980293;28;20042;-79
2021/08/07 09:38:25;;;;;;;7.32;6.85;;;21.40;99.90;;;;;;4986331;28;20140;-78
2021/08/07 09:41:07;;;;;;;7.63;6.95;;;21.40;99.90;;;;;;4966365;28;20422;-78
2021/08/07 09:43:50;;;;;;;7.30;6.90;;;21.30;99.90;;;;;;4971163;28;20046;-79
2021/08/07 09:46:23;;;;;;;9.23;6.45;;;21.50;99.90;;;;;;4968072;28;20057;-79
2021/08/07 09:48:57;;;;;;;16.90;6.63;;;21.70;99.90;;;;;;4985365;28;20074;-79
2021/08/07 09:51:27;;;;;;;6.20;5.85;;;21.50;99.90;;;;;;4967580;28;20096;-79
2021/08/07 09:54:15;;;;;;;6.93;6.35;;;21.10;99.90;;;;;;4993310;28;20050;-79
2021/08/07 09:56:57;;;;;;;6.88;6.47;;;21.10;99.90;;;;;;4985740;28;20168;-79
2021/08/07 09:59:30;;;;;;;6.10;5.80;;;21.30;99.90;;;;;;5002701;28;20221;-78
2021/08/07 10:01:59;;;;;;;6.35;5.72;;;21.80;99.90;;;;;;5001441;28;20062;-76
2021/08/07 10:04:41;;;;;;;8.70;7.18;;;22.00;99.90;;;;;;5002970;28;20052;-75
2021/08/07 10:07:11;;;;;;;6.97;6.35;;;22.30;99.90;;;;;;4967057;28;20069;-76
2021/08/07 10:09:43;;;;;;;6.50;5.90;;;22.70;99.90;;;;;;4966230;28;20141;-76
2021/08/07 10:12:15;;;;;;;8.43;7.63;;;22.80;99.90;;;;;;4964484;28;20054;-75
2021/08/07 10:14:47;;;;;;;7.72;6.97;;;23.00;99.90;;;;;;4965360;28;20415;-76
2021/08/07 10:17:18;;;;;;;7.28;6.78;;;22.60;99.90;;;;;;4982466;28;20108;-75
2021/08/07 10:19:47;;;;;;;7.53;7.13;;;22.40;99.90;;;;;;4966581;28;20117;-75
2021/08/07 10:22:15;;;;;;;7.55;7.03;;;22.30;99.90;;;;;;4965960;28;20050;-76
2021/08/07 10:24:48;;;;;;;7.10;6.60;;;22.40;99.90;;;;;;5012687;28;20073;-73
2021/08/07 10:27:19;;;;;;;7.75;7.35;;;22.30;99.90;;;;;;4968074;28;20228;-75
2021/08/07 10:29:51;;;;;;;7.25;6.75;;;22.20;99.90;;;;;;4949567;28;20315;-76
2021/08/07 10:32:20;;;;;;;7.80;7.40;;;22.10;99.90;;;;;;4982258;28;20058;-74
2021/08/07 10:34:52;;;;;;;7.78;7.28;;;22.00;99.90;;;;;;4965494;28;20129;-76
2021/08/07 10:37:22;;;;;;;7.78;7.18;;;22.20;99.90;;;;;;4976015;28;20049;-75
2021/08/07 10:39:50;;;;;;;8.45;7.65;;;22.40;99.90;;;;;;4978559;28;20054;-74
2021/08/07 10:42:18;;;;;;;8.25;7.63;;;22.40;99.90;;;;;;4981427;28;20042;-74
2021/08/07 10:44:48;;;;;;;8.70;7.90;;;22.30;99.90;;;;;;4965869;28;20061;-75
2021/08/07 10:47:34;;;;;;;7.88;7.30;;;22.10;99.90;;;;;;4977182;28;20042;-76
2021/08/07 10:50:24;;;;;;;8.35;7.65;;;21.80;99.90;;;;;;4962804;28;20166;-75
2021/08/07 10:52:54;;;;;;;7.22;6.80;;;21.90;99.90;;;;;;4959388;28;20081;-74
2021/08/07 10:55:47;;;;;;;8.10;7.40;;;22.00;99.90;;;;;;4980942;28;20062;-73
2021/08/07 10:58:43;;;;;;;6.95;6.35;;;22.00;99.90;;;;;;4984265;28;20212;-75
2021/08/07 11:01:25;;;;;;;7.40;6.80;;;22.00;99.90;;;;;;4964700;28;20073;-74
2021/08/07 11:04:02;;;;;;;7.47;6.90;;;21.90;99.90;;;;;;4982379;28;20658;-74
2021/08/07 11:06:38;;;;;;;8.20;7.45;;;22.00;99.90;;;;;;4980432;28;20050;-74
2021/08/07 11:09:19;;;;;;;7.07;6.63;;;21.90;99.90;;;;;;4965750;28;20046;-75
2021/08/07 11:11:48;;;;;;;7.03;6.47;;;21.80;99.90;;;;;;4981464;28;20462;-74
2021/08/07 11:14:42;;;;;;;8.05;7.30;;;21.90;99.90;;;;;;4982074;28;20289;-75
2021/08/07 11:17:12;;;;;;;7.93;7.35;;;21.70;99.90;;;;;;4964457;28;20474;-75
2021/08/07 11:20:27;;;;;;;7.40;7.05;;;21.50;99.90;;;;;;4987171;28;20045;-74
2021/08/07 11:22:52;;;;;;;7.50;6.70;;;21.20;99.90;;;;;;4995133;28;20260;-75
2021/08/07 11:25:21;;;;;;;8.27;7.57;;;21.10;99.90;;;;;;4991655;28;20133;-75
2021/08/07 11:27:59;;;;;;;7.05;6.55;;;21.00;99.90;;;;;;4990396;28;20058;-74
2021/08/07 11:30:36;;;;;;;6.72;6.22;;;20.80;99.90;;;;;;4967267;28;20062;-75
2021/08/07 11:33:13;;;;;;;6.30;5.80;;;20.60;99.90;;;;;;4994879;28;20064;-73
2021/08/07 11:35:42;;;;;;;4.40;3.97;;;20.20;99.90;;;;;;4994356;28;20494;-76
2021/08/07 11:38:22;;;;;;;5.75;4.63;;;20.10;99.90;;;;;;4968870;28;20562;-74
2021/08/07 11:40:58;;;;;;;3.88;3.53;;;19.90;99.90;;;;;;4967540;28;20046;-74
2021/08/07 11:43:30;;;;;;;5.10;4.00;;;20.00;99.90;;;;;;4985747;28;20054;-74
2021/08/07 11:46:00;;;;;;;7.55;3.95;;;19.90;99.90;;;;;;4983564;28;20499;-75
2021/08/07 11:48:42;;;;;;;4.15;3.67;;;19.80;99.90;;;;;;4984205;28;20504;-77
2021/08/07 11:51:22;;;;;;;4.13;2.95;;;19.80;99.90;;;;;;5003577;28;20049;-74
2021/08/07 11:53:49;;;;;;;4.68;2.88;;;19.90;99.90;;;;;;4991141;28;20066;-76
2021/08/07 11:56:23;;;;;;;6.03;3.05;;;19.90;99.90;;;;;;4985063;28;20050;-74
2021/08/07 11:58:53;;;;;;;6.60;3.40;;;20.00;99.90;;;;;;4985683;28;20046;-74
2021/08/07 12:01:21;;;;;;;7.80;3.42;;;20.10;99.90;;;;;;4984489;28;20093;-75
2021/08/07 12:03:50;;;;;;;6.95;3.55;;;20.00;99.90;;;;;;4985683;28;20124;-76
2021/08/07 12:06:20;;;;;;;4.43;3.83;;;20.00;99.90;;;;;;4967152;28;20145;-74
2021/08/07 12:08:48;;;;;;;4.50;3.30;;;19.90;99.90;;;;;;4984928;28;20116;-74
2021/08/07 12:11:17;;;;;;;3.83;3.42;;;19.70;99.90;;;;;;4999724;28;20057;-74
2021/08/07 12:13:51;;;;;;;5.10;3.88;;;19.50;99.90;;;;;;4989387;28;20105;-74
2021/08/07 12:16:20;;;;;;;5.07;4.60;;;19.40;99.90;;;;;;4981607;28;20050;-75
2021/08/07 12:18:54;;;;;;;4.88;4.07;;;19.30;99.90;;;;;;4986621;28;20055;-75
2021/08/07 12:21:37;;;;;;;5.30;4.90;;;19.30;99.90;;;;;;4967198;28;20042;-75
2021/08/07 12:24:12;;;;;;;6.70;4.65;;;19.40;99.90;;;;;;4973928;28;20042;-74
2021/08/07 12:26:56;;;;;;;5.85;4.22;;;19.40;99.90;;;;;;4986528;28;20034;-73
2021/08/07 12:29:26;;;;;;;4.10;3.80;;;19.50;99.90;;;;;;4984052;28;20577;-75
2021/08/07 12:31:54;;;;;;;5.82;4.30;;;19.50;99.90;;;;;;4999018;28;20424;-74
2021/08/07 12:34:32;;;;;;;6.50;4.43;;;19.70;99.90;;;;;;4985406;28;20097;-75
2021/08/07 12:37:19;;;;;;;4.65;4.35;;;20.10;99.90;;;;;;4963386;28;20054;-74
2021/08/07 12:39:49;;;;;;;5.03;4.63;;;20.70;99.90;;;;;;4983394;28;20398;-73
2021/08/07 12:42:20;;;;;;;6.50;5.80;;;21.10;99.90;;;;;;4968238;28;20052;-75
2021/08/07 12:45:09;;;;;;;6.53;5.82;;;21.20;99.90;;;;;;4967144;28;20046;-74
2021/08/07 12:47:37;;;;;;;7.03;6.53;;;21.50;99.90;;;;;;4983484;28;20113;-73
2021/08/07 12:50:11;;;;;;;8.38;6.05;;;21.70;99.90;;;;;;4967300;28;20047;-75
2021/08/07 12:52:51;;;;;;;8.48;7.65;;;21.90;99.90;;;;;;4991727;28;20053;-75
2021/08/07 12:55:20;;;;;;;7.05;6.38;;;21.90;99.90;;;;;;4972215;28;20066;-75
2021/08/07 12:58:28;;;;;;;8.75;6.78;;;22.10;99.90;;;;;;4966519;28;20135;-73
2021/08/07 13:01:11;;;;;;;7.68;6.95;;;22.10;99.90;;;;;;4943325;28;20874;-75
2021/08/07 13:04:02;;;;;;;8.00;7.50;;;22.30;99.90;;;;;;4961871;28;20511;-75
2021/08/07 13:06:31;;;;;;;7.32;6.93;;;22.30;99.90;;;;;;4981887;28;20058;-75